Terminal Aerodrome Forecast
Issued by NWS

Home | Current Version | Previous Version | Text Only | Print | Product List | Glossary On
Versions: 1 2 3 4 5 6 7 8 9 10 11 12 13 14 15 16 17 18 19 20 21 22 23 24
000
FTUS45 KABQ 262003 AAA
TAFLVS
TAF AMD
KLVS 262003Z 2620/2718 06011KT P6SM SCT015 BKN035
     FM270000 10011KT P6SM VCSH SCT007 BKN015
      TEMPO 2700/2704 08008KT 5SM -SHRA BR SCT002 BKN007
     FM270400 06010KT 3SM -RA BR SCT001 BKN003=

USA.gov is the U.S. government's official web portal to all federal, state and local government web resources and services.